EST,Max TemperatureF,Mean TemperatureF,Min TemperatureF,Max Dew PointF,MeanDew PointF,Min DewpointF,Max Humidity, Mean Humidity, Min Humidity, Max Sea Level PressureIn, Mean Sea Level PressureIn, Min Sea Level PressureIn, Max VisibilityMiles, Mean VisibilityMiles, Min VisibilityMiles, Max Wind SpeedMPH, Mean Wind SpeedMPH, Max Gust SpeedMPH,PrecipitationIn, CloudCover, Events, WindDirDegrees
2011-11-1,59,44,29,38,32,28,100,69,37,30.27,30.22,30.19,10,5,1,14,3,20,0.00,0,,184
2011-11-2,65,53,41,39,35,34,76,54,31,30.23,30.15,30.03,10,10,10,20,8,25,0.00,0,,193
2011-11-3,52,48,43,45,40,36,83,73,63,30.10,30.02,29.97,10,9,6,21,9,26,0.00,4,,52
2011-11-4,50,40,29,35,29,19,92,62,31,30.35,30.25,30.11,10,10,10,21,7,28,0.00,1,,36
2011-11-5,55,42,28,34,27,21,92,59,26,30.38,30.30,30.21,10,10,9,10,3,14,0.00,0,,120
2011-11-6,63,46,28,40,33,25,92,68,43,30.27,30.21,30.15,10,10,6,21,8,28,0.00,1,,185
2011-11-7,56,54,52,52,49,37,93,70,47,30.27,30.23,30.20,10,5,1,16,6,21,0.09,8,Rain,218
2011-11-8,69,61,52,52,50,47,100,74,47,30.21,30.12,29.98,10,6,1,18,7,25,0.01,6,Rain,158
2011-11-9,65,53,40,55,44,32,84,72,60,29.97,29.79,29.62,10,9,1,41,15,55,0.27,7,Rain,209
2011-11-10,44,39,34,36,30,21,82,63,43,29.99,29.94,29.91,10,10,4,26,14,32,T,6,Rain-Snow,244
2011-11-11,44,39,33,32,28,23,89,67,45,30.02,29.96,29.87,10,10,7,20,11,25,0.00,5,,239
2011-11-12,60,47,33,36,32,25,75,58,40,29.91,29.86,29.81,10,10,10,21,11,30,0.00,0,,206
2011-11-13,63,58,52,52,43,33,72,59,46,29.81,29.65,29.55,10,10,10,30,17,41,0.00,4,,199
2011-11-14,63,52,41,55,44,32,96,69,41,29.73,29.62,29.48,10,6,0,35,5,40,1.13,5,Fog-Rain-Thunderstorm,267
2011-11-15,57,49,41,49,45,41,100,86,72,29.86,29.81,29.73,10,5,0,16,6,22,0.00,4,Fog,221
2011-11-16,51,43,34,48,35,21,100,68,36,30.10,29.92,29.80,10,8,3,17,10,22,0.00,1,,276
2011-11-17,38,33,27,25,19,14,78,61,44,30.28,30.15,30.07,10,10,10,25,12,33,0.00,3,,247
2011-11-18,47,36,24,20,17,12,74,50,25,30.34,30.22,30.06,10,10,10,23,10,32,0.00,1,,198
2011-11-19,56,48,40,45,33,20,80,60,39,30.09,30.01,29.88,10,10,10,22,12,29,0.01,6,,198
2011-11-20,59,50,41,50,40,32,77,69,60,30.30,30.12,29.88,10,10,8,22,11,30,0.00,5,,313
2011-11-21,45,40,34,36,34,31,92,81,70,30.35,30.30,30.24,10,10,7,16,9,20,0.08,6,Rain,69
2011-11-22,46,41,35,43,38,33,96,84,71,30.26,29.92,29.66,10,5,2,31,16,41,1.54,7,Rain,52
2011-11-23,52,44,36,38,35,32,100,74,48,30.24,30.05,29.76,10,9,4,20,10,26,0.19,4,Rain,301
2011-11-24,43,40,37,39,37,35,93,86,79,30.30,30.24,30.17,7,4,2,18,11,25,0.00,6,,229
2011-11-25,60,50,40,41,39,37,92,70,47,30.17,30.08,30.01,10,9,4,22,12,29,0.00,0,,212
2011-11-26,64,55,46,46,42,36,67,61,54,30.05,29.99,29.87,10,10,10,23,10,31,T,3,Rain,191
2011-11-27,57,48,38,54,47,35,100,89,77,30.04,29.86,29.77,10,8,2,16,10,23,0.72,8,Rain,266
2011-11-28,40,38,35,37,34,28,92,86,79,30.12,30.03,29.89,10,8,2,16,10,21,0.32,8,Rain,30
2011-11-29,40,37,33,38,36,30,100,95,89,29.87,29.65,29.54,9,2,0,28,16,37,2.77,8,Fog-Rain-Snow,358
2011-11-30,39,35,30,30,27,21,92,70,48,30.20,29.87,29.65,10,7,1,23,11,31,0.02,4,Snow,297